Observation data for Olton on 03/12/2018      Previous  Date  Next       Current Mesonet Observations  Soil Data  Daily Summary Page  Observations in Plain Language
KONS 120500Z 03006KT 04/M12 A3034 RMK A01 T00381115  RH  032%=      5-min Rain = 0
KONS 120505Z 03005KT 04/M12 A3035 RMK A01 T00371117  RH  032%=      5-min Rain = 0
KONS 120510Z 03005KT 04/M12 A3035 RMK A01 T00361120  RH  031%=      5-min Rain = 0
KONS 120515Z 04005KT 04/M12 A3035 RMK A01 T00351122  RH  031%=      5-min Rain = 0
KONS 120520Z 04006KT 03/M12 A3035 RMK A01 T00321122  RH  032%=      5-min Rain = 0
KONS 120525Z 04005KT 03/M12 A3035 RMK A01 T00291123  RH  032%=      5-min Rain = 0
KONS 120530Z 05004KT 03/M12 A3036 RMK A01 T00291123  RH  032%=      5-min Rain = 0
KONS 120535Z 04004KT 03/M13 A3035 RMK A01 T00301126  RH  031%=      5-min Rain = 0
KONS 120540Z 05004KT 03/M13 A3036 RMK A01 T00301129  RH  030%=      5-min Rain = 0
KONS 120545Z 06004KT 03/M14 A3036 RMK A01 T00311137  RH  028%=      5-min Rain = 0
KONS 120550Z 05003KT 03/M14 A3036 RMK A01 T00321139  RH  028%=      5-min Rain = 0
KONS 120555Z 06004KT 03/M14 A3036 RMK A01 T00321138  RH  028%=      5-min Rain = 0
KONS 120600Z 06003KT 03/M14 A3036 RMK A01 T00311138  RH  028%=      5-min Rain = 0
KONS 120605Z 07003KT 03/M14 A3036 RMK A01 T00311138  RH  028%=      5-min Rain = 0
KONS 120610Z 07003KT 03/M14 A3036 RMK A01 T00311136  RH  029%=      5-min Rain = 0
KONS 120615Z 08003KT 03/M13 A3036 RMK A01 T00301134  RH  029%=      5-min Rain = 0
KONS 120620Z 07004KT 03/M13 A3036 RMK A01 T00311133  RH  029%=      5-min Rain = 0
KONS 120625Z 07005KT 03/M13 A3036 RMK A01 T00321127  RH  031%=      5-min Rain = 0
KONS 120630Z 06005KT 03/M12 A3036 RMK A01 T00321117  RH  033%=      5-min Rain = 0
KONS 120635Z 06005KT 03/M11 A3036 RMK A01 T00331114  RH  034%=      5-min Rain = 0
KONS 120640Z 06004KT 03/M11 A3036 RMK A01 T00331112  RH  034%=      5-min Rain = 0
KONS 120645Z 05004KT 03/M11 A3036 RMK A01 T00331107  RH  036%=      5-min Rain = 0
KONS 120650Z 04003KT 03/M11 A3036 RMK A01 T00321107  RH  036%=      5-min Rain = 0
KONS 120655Z 03003KT 03/M11 A3036 RMK A01 T00311110  RH  035%=      5-min Rain = 0
KONS 120700Z 03003KT 03/M10 A3036 RMK A01 T00301099  RH  039%=      5-min Rain = 0
KONS 120705Z 03003KT 03/M09 A3036 RMK A01 T00271091  RH  042%=      5-min Rain = 0
KONS 120710Z 03004KT 02/M09 A3035 RMK A01 T00241086  RH  045%=      5-min Rain = 0
KONS 120715Z 03004KT 02/M10 A3035 RMK A01 T00241098  RH  041%=      5-min Rain = 0
KONS 120720Z 03003KT 02/M11 A3035 RMK A01 T00241108  RH  038%=      5-min Rain = 0
KONS 120725Z 04003KT 02/M11 A3036 RMK A01 T00231112  RH  037%=      5-min Rain = 0
KONS 120730Z 03003KT 02/M11 A3036 RMK A01 T00241110  RH  037%=      5-min Rain = 0
KONS 120735Z 03003KT 02/M10 A3036 RMK A01 T00211102  RH  040%=      5-min Rain = 0
KONS 120740Z 03003KT 02/M11 A3036 RMK A01 T00191113  RH  037%=      5-min Rain = 0
KONS 120745Z 04003KT 02/M12 A3036 RMK A01 T00211124  RH  034%=      5-min Rain = 0
KONS 120750Z 04003KT 02/M12 A3036 RMK A01 T00221123  RH  034%=      5-min Rain = 0
KONS 120755Z 03003KT 02/M12 A3036 RMK A01 T00211119  RH  035%=      5-min Rain = 0
KONS 120800Z 03003KT 02/M12 A3036 RMK A01 T00191115  RH  037%=      5-min Rain = 0
KONS 120805Z 03003KT 02/M12 A3036 RMK A01 T00181116  RH  037%=      5-min Rain = 0
KONS 120810Z 03003KT 02/M11 A3036 RMK A01 T00161112  RH  039%=      5-min Rain = 0
KONS 120815Z 03004KT 01/M11 A3036 RMK A01 T00141107  RH  041%=      5-min Rain = 0
KONS 120820Z 03004KT 01/M11 A3036 RMK A01 T00121105  RH  042%=      5-min Rain = 0
KONS 120825Z 04004KT 01/M11 A3036 RMK A01 T00131109  RH  040%=      5-min Rain = 0
KONS 120830Z 04004KT 01/M11 A3036 RMK A01 T00121108  RH  041%=      5-min Rain = 0
KONS 120835Z 04004KT 01/M11 A3035 RMK A01 T00091106  RH  042%=      5-min Rain = 0
KONS 120840Z 04003KT 01/M10 A3035 RMK A01 T00071104  RH  044%=      5-min Rain = 0
KONS 120845Z 04004KT 01/M10 A3035 RMK A01 T00071103  RH  044%=      5-min Rain = 0
KONS 120850Z 04004KT 01/M10 A3035 RMK A01 T00071102  RH  044%=      5-min Rain = 0
KONS 120855Z 04004KT 01/M10 A3035 RMK A01 T00071100  RH  045%=      5-min Rain = 0
KONS 120900Z 04004KT 01/M10 A3035 RMK A01 T00071099  RH  046%=      5-min Rain = 0
KONS 120905Z 04004KT 01/M10 A3035 RMK A01 T00051095  RH  048%=      5-min Rain = 0
KONS 120910Z 03004KT 00/M09 A3034 RMK A01 T00021091  RH  050%=      5-min Rain = 0
KONS 120915Z 03003KT M00/M09 A3034 RMK A01 T10011094  RH  050%=      5-min Rain = 0
KONS 120920Z 03003KT 00/10 A3034 RMK A01 T00-00-96  RH  049%=      5-min Rain = 0
KONS 120925Z 03004KT 00/10 A3034 RMK A01 T00-00-95  RH  049%=      5-min Rain = 0
KONS 120930Z 03003KT 00/10 A3034 RMK A01 T00-00-95  RH  049%=      5-min Rain = 0
KONS 120935Z 04004KT 00/10 A3034 RMK A01 T00-00-97  RH  049%=      5-min Rain = 0
KONS 120940Z 04004KT 00/10 A3034 RMK A01 T00000-97  RH  049%=      5-min Rain = 0
KONS 120945Z 04005KT 00/M10 A3034 RMK A01 T00021097  RH  048%=      5-min Rain = 0
KONS 120950Z 05005KT 00/M09 A3034 RMK A01 T00021094  RH  049%=      5-min Rain = 0
KONS 120955Z 05005KT 00/M09 A3034 RMK A01 T00031093  RH  049%=      5-min Rain = 0
KONS 121000Z 05006KT 01/M09 A3033 RMK A01 T00071086  RH  051%=      5-min Rain = 0
KONS 121005Z 04005KT 01/M08 A3034 RMK A01 T00091081  RH  052%=      5-min Rain = 0
KONS 121010Z 04005KT 01/M08 A3034 RMK A01 T00091077  RH  053%=      5-min Rain = 0
KONS 121015Z 04005KT 01/M08 A3033 RMK A01 T00091079  RH  052%=      5-min Rain = 0
KONS 121020Z 04005KT 01/M08 A3034 RMK A01 T00091080  RH  052%=      5-min Rain = 0
KONS 121025Z 04004KT 01/M08 A3034 RMK A01 T00091077  RH  053%=      5-min Rain = 0
KONS 121030Z 04005KT 01/M08 A3034 RMK A01 T00081076  RH  054%=      5-min Rain = 0
KONS 121035Z 03004KT 01/M08 A3034 RMK A01 T00071080  RH  053%=      5-min Rain = 0
KONS 121040Z 03005KT 01/M08 A3034 RMK A01 T00061082  RH  052%=      5-min Rain = 0
KONS 121045Z 03005KT 01/M08 A3034 RMK A01 T00051079  RH  054%=      5-min Rain = 0
KONS 121050Z 02005KT 00/M08 A3034 RMK A01 T00041081  RH  054%=      5-min Rain = 0
KONS 121055Z 03005KT 00/M09 A3034 RMK A01 T00031085  RH  052%=      5-min Rain = 0
KONS 121100Z 03004KT 00/09 A3034 RMK A01 T00000-86  RH  053%=      5-min Rain = 0
KONS 121105Z 03004KT M00/M09 A3035 RMK A01 T10021086  RH  054%=      5-min Rain = 0
KONS 121110Z 03003KT M00/M08 A3035 RMK A01 T10021083  RH  055%=      5-min Rain = 0
KONS 121115Z 01002KT M00/M08 A3035 RMK A01 T10021080  RH  057%=      5-min Rain = 0
KONS 121120Z 28003G8KT M00/M08 A3035 RMK A01 T10031075  RH  059%=      5-min Rain = 0
KONS 121125Z 27005KT M00/M07 A3035 RMK A01 T10021072  RH  060%=      5-min Rain = 0
KONS 121130Z 30001KT 00/07 A3035 RMK A01 T00-00-69  RH  060%=      5-min Rain = 0
KONS 121135Z 28005KT 00/M06 A3035 RMK A01 T00021064  RH  062%=      5-min Rain = 0
KONS 121140Z 28004KT 00/M06 A3035 RMK A01 T00021062  RH  063%=      5-min Rain = 0
KONS 121145Z 28005KT 00/M06 A3035 RMK A01 T00021063  RH  063%=      5-min Rain = 0
KONS 121150Z 28005KT 00/M06 A3036 RMK A01 T00011062  RH  063%=      5-min Rain = 0
KONS 121155Z 28005KT 00/M06 A3036 RMK A01 T00011063  RH  063%=      5-min Rain = 0
KONS 121200Z 28004KT 00/06 A3035 RMK A01 T00-00-63  RH  063%=      5-min Rain = 0
KONS 121205Z 26003KT M00/M07 A3035 RMK A01 T10011065  RH  063%=      5-min Rain = 0
KONS 121210Z 26003KT M00/M06 A3035 RMK A01 T10021064  RH  064%=      5-min Rain = 0
KONS 121215Z 27004KT M00/M06 A3035 RMK A01 T10031060  RH  066%=      5-min Rain = 0
KONS 121220Z 26004KT M00/M06 A3036 RMK A01 T10011057  RH  067%=      5-min Rain = 0
KONS 121225Z 26003KT 00/06 A3036 RMK A01 T00000-57  RH  066%=      5-min Rain = 0
KONS 121230Z 28003KT 00/M06 A3036 RMK A01 T00021056  RH  066%=      5-min Rain = 0
KONS 121235Z 30003KT 00/M06 A3036 RMK A01 T00031056  RH  065%=      5-min Rain = 0
KONS 121240Z 30003KT 00/M05 A3036 RMK A01 T00041054  RH  066%=      5-min Rain = 0
KONS 121245Z 31004KT 01/M05 A3036 RMK A01 T00051051  RH  067%=      5-min Rain = 0
KONS 121250Z 31003KT 01/M05 A3036 RMK A01 T00061050  RH  067%=      5-min Rain = 0
KONS 121255Z 31002KT 01/M05 A3036 RMK A01 T00061051  RH  066%=      5-min Rain = 0
KONS 121300Z 31002KT 01/M05 A3036 RMK A01 T00071054  RH  065%=      5-min Rain = 0
KONS 121305Z 29003KT 01/M06 A3036 RMK A01 T00081056  RH  063%=      5-min Rain = 0
KONS 121310Z 29002KT 01/M06 A3037 RMK A01 T00101059  RH  060%=      5-min Rain = 0
KONS 121315Z 29003KT 01/M06 A3037 RMK A01 T00121058  RH  060%=      5-min Rain = 0
KONS 121320Z 30002KT 01/M06 A3037 RMK A01 T00141055  RH  061%=      5-min Rain = 0
KONS 121325Z 30002KT 02/M06 A3037 RMK A01 T00151057  RH  059%=      5-min Rain = 0
KONS 121330Z 32003KT 02/M06 A3037 RMK A01 T00151058  RH  059%=      5-min Rain = 0
KONS 121335Z 31002KT 02/M06 A3037 RMK A01 T00161056  RH  059%=      5-min Rain = 0
KONS 121340Z 30002KT 02/M06 A3037 RMK A01 T00161056  RH  059%=      5-min Rain = 0
KONS 121345Z 28002KT 02/M06 A3037 RMK A01 T00171058  RH  058%=      5-min Rain = 0
KONS 121350Z 28002KT 02/M06 A3037 RMK A01 T00191058  RH  058%=      5-min Rain = 0
KONS 121355Z 29002KT 02/M06 A3037 RMK A01 T00201059  RH  057%=      5-min Rain = 0
KONS 121400Z 29002KT 02/M06 A3038 RMK A01 T00221060  RH  056%=      5-min Rain = 0
KONS 121405Z 28002KT 02/M06 A3038 RMK A01 T00231059  RH  055%=      5-min Rain = 0
KONS 121410Z 28001KT 03/M06 A3038 RMK A01 T00251057  RH  055%=      5-min Rain = 0
KONS 121415Z 27001KT 03/M06 A3038 RMK A01 T00261060  RH  053%=      5-min Rain = 0
KONS 121420Z 26001KT 03/M06 A3038 RMK A01 T00281061  RH  053%=      5-min Rain = 0
KONS 121425Z 25001KT 03/M06 A3038 RMK A01 T00291063  RH  051%=      5-min Rain = 0
KONS 121430Z 25001KT 03/M07 A3038 RMK A01 T00321066  RH  049%=      5-min Rain = 0
KONS 121435Z 23001KT 03/M07 A3038 RMK A01 T00341065  RH  049%=      5-min Rain = 0
KONS 121440Z 19001KT 04/M06 A3039 RMK A01 T00361064  RH  048%=      5-min Rain = 0
KONS 121445Z 19001KT 04/M06 A3039 RMK A01 T00381062  RH  049%=      5-min Rain = 0
KONS 121450Z 20001KT 04/M06 A3039 RMK A01 T00391059  RH  049%=      5-min Rain = 0
KONS 121455Z 19002KT 04/M06 A3039 RMK A01 T00401057  RH  050%=      5-min Rain = 0
KONS 121500Z 17002KT 04/M06 A3039 RMK A01 T00411056  RH  050%=      5-min Rain = 0
KONS 121505Z 17002KT 04/M05 A3039 RMK A01 T00431053  RH  050%=      5-min Rain = 0
KONS 121510Z 18004KT 05/M05 A3039 RMK A01 T00461052  RH  050%=      5-min Rain = 0
KONS 121515Z 17005KT 05/M05 A3039 RMK A01 T00481052  RH  049%=      5-min Rain = 0
KONS 121520Z 17005KT 05/M05 A3039 RMK A01 T00501051  RH  049%=      5-min Rain = 0
KONS 121525Z 18005KT 05/M05 A3039 RMK A01 T00521051  RH  048%=      5-min Rain = 0
KONS 121530Z 18005KT 05/M05 A3039 RMK A01 T00541050  RH  048%=      5-min Rain = 0
KONS 121535Z 20005KT 06/M05 A304 RMK A01 T00551050  RH  047%=      5-min Rain = 0
KONS 121540Z 21006KT 06/M05 A304 RMK A01 T00561050  RH  047%=      5-min Rain = 0
KONS 121545Z 21006KT 06/M05 A304 RMK A01 T00571050  RH  046%=      5-min Rain = 0
KONS 121550Z 19005KT 06/M05 A304 RMK A01 T00601048  RH  046%=      5-min Rain = 0
KONS 121555Z 19005KT 07/M05 A3039 RMK A01 T00651048  RH  045%=      5-min Rain = 0
KONS 121600Z 20006KT 07/M05 A3039 RMK A01 T00661049  RH  044%=      5-min Rain = 0
KONS 121605Z 18005KT 07/M05 A3039 RMK A01 T00711047  RH  043%=      5-min Rain = 0
KONS 121610Z 19005KT 07/M05 A3039 RMK A01 T00701049  RH  043%=      5-min Rain = 0
KONS 121615Z 19005KT 07/M05 A3039 RMK A01 T00701050  RH  042%=      5-min Rain = 0
KONS 121620Z 18005KT 07/M05 A3039 RMK A01 T00711050  RH  042%=      5-min Rain = 0
KONS 121625Z 18005KT 07/M05 A3039 RMK A01 T00721051  RH  042%=      5-min Rain = 0
KONS 121630Z 19005KT 08/M05 A3038 RMK A01 T00751050  RH  041%=      5-min Rain = 0
KONS 121635Z 19005KT 08/M05 A3038 RMK A01 T00791051  RH  040%=      5-min Rain = 0
KONS 121640Z 19004KT 08/M05 A3038 RMK A01 T00811051  RH  039%=      5-min Rain = 0
KONS 121645Z 20005KT 08/M05 A3038 RMK A01 T00831052  RH  038%=      5-min Rain = 0
KONS 121650Z 21005KT 09/M05 A3037 RMK A01 T00851054  RH  037%=      5-min Rain = 0
KONS 121655Z 18005KT 09/M05 A3037 RMK A01 T00861053  RH  037%=      5-min Rain = 0
KONS 121700Z 17006KT 09/M05 A3037 RMK A01 T00871053  RH  037%=      5-min Rain = 0
KONS 121705Z 17005KT 09/M06 A3037 RMK A01 T00901057  RH  035%=      5-min Rain = 0
KONS 121710Z 18003KT 09/M06 A3037 RMK A01 T00881059  RH  035%=      5-min Rain = 0
KONS 121715Z 17006KT 09/M06 A3037 RMK A01 T00921059  RH  034%=      5-min Rain = 0
KONS 121720Z 15003KT 09/M06 A3037 RMK A01 T00941062  RH  033%=      5-min Rain = 0
KONS 121725Z 18005KT 10/M06 A3036 RMK A01 T00971061  RH  033%=      5-min Rain = 0
KONS 121730Z 16006KT 10/M06 A3036 RMK A01 T01001060  RH  032%=      5-min Rain = 0
KONS 121735Z 12004KT 10/M06 A3036 RMK A01 T01001063  RH  032%=      5-min Rain = 0
KONS 121740Z 20006KT 10/M06 A3036 RMK A01 T01011060  RH  032%=      5-min Rain = 0
KONS 121745Z 20004KT 10/M06 A3036 RMK A01 T01001060  RH  032%=      5-min Rain = 0
KONS 121750Z 16004KT 10/M06 A3036 RMK A01 T01021062  RH  031%=      5-min Rain = 0
KONS 121755Z 14002KT 10/M07 A3036 RMK A01 T01011065  RH  031%=      5-min Rain = 0
KONS 121800Z 21004KT 10/M07 A3035 RMK A01 T01031067  RH  030%=      5-min Rain = 0
KONS 121805Z 25004KT 11/M07 A3035 RMK A01 T01051073  RH  028%=      5-min Rain = 0
KONS 121810Z 22005KT 11/M07 A3035 RMK A01 T01061067  RH  029%=      5-min Rain = 0
KONS 121815Z 18004KT 11/M07 A3035 RMK A01 T01071067  RH  029%=      5-min Rain = 0
KONS 121820Z 19003KT 11/M08 A3034 RMK A01 T01051075  RH  028%=      5-min Rain = 0
KONS 121825Z 23003KT 11/M08 A3034 RMK A01 T01081077  RH  027%=      5-min Rain = 0
KONS 121830Z 24006KT 11/M08 A3034 RMK A01 T01081080  RH  026%=      5-min Rain = 0
KONS 121835Z 25005KT 11/M08 A3034 RMK A01 T01101080  RH  026%=      5-min Rain = 0
KONS 121840Z 22004KT 11/M08 A3034 RMK A01 T01091081  RH  026%=      5-min Rain = 0
KONS 121845Z 17003KT 11/M08 A3033 RMK A01 T01101078  RH  026%=      5-min Rain = 0
KONS 121850Z 13004KT 11/M08 A3033 RMK A01 T01121080  RH  026%=      5-min Rain = 0
KONS 121855Z 18004KT 11/M08 A3032 RMK A01 T01141080  RH  025%=      5-min Rain = 0
KONS 121900Z 23002G7KT 11/M08 A3032 RMK A01 T01131077  RH  026%=      5-min Rain = 0
KONS 121905Z 21007KT 12/M08 A3032 RMK A01 T01171076  RH  026%=      5-min Rain = 0
KONS 121910Z 15005KT 12/M08 A3031 RMK A01 T01181078  RH  025%=      5-min Rain = 0
KONS 121915Z 16006G11KT 12/M08 A3031 RMK A01 T01181081  RH  024%=      5-min Rain = 0
KONS 121920Z 16004KT 12/M08 A3031 RMK A01 T01191084  RH  024%=      5-min Rain = 0
KONS 121925Z 14005G10KT 12/M08 A303 RMK A01 T01221084  RH  023%=      5-min Rain = 0
KONS 121930Z 19003G11KT 12/M08 A303 RMK A01 T01211084  RH  023%=      5-min Rain = 0
KONS 121935Z 20004KT 12/M09 A303 RMK A01 T01221085  RH  023%=      5-min Rain = 0
KONS 121940Z 24004KT 12/M08 A303 RMK A01 T01231084  RH  023%=      5-min Rain = 0
KONS 121945Z 19003KT 13/M08 A3029 RMK A01 T01271082  RH  023%=      5-min Rain = 0
KONS 121950Z 21004G9KT 13/M09 A3029 RMK A01 T01321085  RH  021%=      5-min Rain = 0
KONS 121955Z 20005KT 13/M09 A3028 RMK A01 T01301086  RH  022%=      5-min Rain = 0
KONS 122000Z 19003G9KT 13/M09 A3028 RMK A01 T01311086  RH  021%=      5-min Rain = 0
KONS 122005Z 19004KT 13/M08 A3028 RMK A01 T01301084  RH  022%=      5-min Rain = 0
KONS 122010Z 23001KT 13/M08 A3028 RMK A01 T01311083  RH  022%=      5-min Rain = 0
KONS 122015Z 19005KT 13/M08 A3028 RMK A01 T01321081  RH  022%=      5-min Rain = 0
KONS 122020Z 17005KT 13/M08 A3027 RMK A01 T01341082  RH  022%=      5-min Rain = 0
KONS 122025Z 18004KT 13/M08 A3027 RMK A01 T01321082  RH  022%=      5-min Rain = 0
KONS 122030Z 18004G10KT 13/M08 A3027 RMK A01 T01321083  RH  022%=      5-min Rain = 0
KONS 122035Z 17007KT 13/M08 A3027 RMK A01 T01331083  RH  022%=      5-min Rain = 0
KONS 122040Z 19006KT 13/M08 A3026 RMK A01 T01321083  RH  022%=      5-min Rain = 0
KONS 122045Z 28002KT 13/M09 A3026 RMK A01 T01321085  RH  021%=      5-min Rain = 0
KONS 122050Z 14005KT 14/M08 A3026 RMK A01 T01371084  RH  021%=      5-min Rain = 0
KONS 122055Z 16003G8KT 14/M09 A3026 RMK A01 T01371085  RH  021%=      5-min Rain = 0
KONS 122100Z 22007KT 14/M09 A3025 RMK A01 T01391085  RH  021%=      5-min Rain = 0
KONS 122105Z 20008KT 14/M08 A3025 RMK A01 T01391084  RH  021%=      5-min Rain = 0
KONS 122110Z 18005KT 14/M09 A3025 RMK A01 T01361088  RH  020%=      5-min Rain = 0
KONS 122115Z 21004KT 14/M09 A3024 RMK A01 T01361085  RH  021%=      5-min Rain = 0
KONS 122120Z 21005G11KT 14/M09 A3024 RMK A01 T01381086  RH  020%=      5-min Rain = 0
KONS 122125Z 22005KT 14/M09 A3023 RMK A01 T01401085  RH  021%=      5-min Rain = 0
KONS 122130Z 21006KT 14/M08 A3023 RMK A01 T01411083  RH  021%=      5-min Rain = 0
KONS 122135Z 22006KT 14/M08 A3023 RMK A01 T01401083  RH  021%=      5-min Rain = 0
KONS 122140Z 22006KT 14/M09 A3023 RMK A01 T01401086  RH  020%=      5-min Rain = 0
KONS 122145Z 18006G11KT 14/M09 A3023 RMK A01 T01421085  RH  020%=      5-min Rain = 0
KONS 122150Z 18006G15KT 14/M08 A3022 RMK A01 T01411082  RH  021%=      5-min Rain = 0
KONS 122155Z 20009G15KT 14/M08 A3022 RMK A01 T01431081  RH  021%=      5-min Rain = 0
KONS 122200Z 19005G10KT 14/M09 A3022 RMK A01 T01391086  RH  020%=      5-min Rain = 0
KONS 122205Z 20006G11KT 14/M09 A3022 RMK A01 T01411089  RH  020%=      5-min Rain = 0
KONS 122210Z 16005KT 14/M09 A3021 RMK A01 T01391091  RH  020%=      5-min Rain = 0
KONS 122215Z 13003KT 14/M09 A3021 RMK A01 T01361091  RH  020%=      5-min Rain = 0
KONS 122220Z 18002KT 14/M09 A3021 RMK A01 T01381088  RH  020%=      5-min Rain = 0
KONS 122225Z 20007KT 14/M09 A3021 RMK A01 T01401087  RH  020%=      5-min Rain = 0
KONS 122230Z 19004KT 14/M09 A3021 RMK A01 T01381089  RH  020%=      5-min Rain = 0
KONS 122235Z 14006G11KT 14/M09 A302 RMK A01 T01391090  RH  020%=      5-min Rain = 0
KONS 122240Z 15007KT 14/M09 A302 RMK A01 T01381091  RH  020%=      5-min Rain = 0
KONS 122245Z 19009KT 14/M09 A3021 RMK A01 T01371089  RH  020%=      5-min Rain = 0
KONS 122250Z 19007KT 14/M09 A302 RMK A01 T01371091  RH  020%=      5-min Rain = 0
KONS 122255Z 20004KT 14/M10 A302 RMK A01 T01381096  RH  019%=      5-min Rain = 0
KONS 122300Z 18006G12KT 14/M09 A302 RMK A01 T01411093  RH  019%=      5-min Rain = 0
KONS 122305Z 19010KT 14/M09 A302 RMK A01 T01381091  RH  020%=      5-min Rain = 0
KONS 122310Z 16006KT 14/M09 A302 RMK A01 T01351094  RH  020%=      5-min Rain = 0
KONS 122315Z 18005KT 14/M10 A3019 RMK A01 T01371097  RH  019%=      5-min Rain = 0
KONS 122320Z 18004KT 14/M10 A3019 RMK A01 T01371099  RH  019%=      5-min Rain = 0
KONS 122325Z 19007KT 14/M09 A3019 RMK A01 T01371093  RH  020%=      5-min Rain = 0
KONS 122330Z 18008KT 13/M09 A3019 RMK A01 T01331092  RH  020%=      5-min Rain = 0
KONS 122335Z 18007KT 13/M09 A3019 RMK A01 T01311092  RH  021%=      5-min Rain = 0
KONS 122340Z 19005KT 13/M09 A3019 RMK A01 T01311092  RH  020%=      5-min Rain = 0
KONS 122345Z 17008KT 13/M09 A3019 RMK A01 T01321089  RH  021%=      5-min Rain = 0
KONS 122350Z 18007KT 13/M09 A3019 RMK A01 T01311086  RH  022%=      5-min Rain = 0
KONS 122355Z 17005KT 13/M09 A3019 RMK A01 T01311093  RH  020%=      5-min Rain = 0
KONS 130000Z 17006KT 13/M10 A3019 RMK A01 T01311096  RH  020%=      5-min Rain = 0
KONS 130005Z 18005KT 13/M09 A302 RMK A01 T01301094  RH  020%=      5-min Rain = 0
KONS 130010Z 18004KT 13/M10 A3019 RMK A01 T01301095  RH  020%=      5-min Rain = 0
KONS 130015Z 16004KT 13/M09 A3019 RMK A01 T01301090  RH  021%=      5-min Rain = 0
KONS 130020Z 16004KT 13/M10 A3019 RMK A01 T01291095  RH  020%=      5-min Rain = 0
KONS 130025Z 16006KT 13/M09 A3019 RMK A01 T01251089  RH  022%=      5-min Rain = 0
KONS 130030Z 16005KT 12/M09 A302 RMK A01 T01201091  RH  022%=      5-min Rain = 0
KONS 130035Z 16005KT 12/M09 A302 RMK A01 T01161092  RH  023%=      5-min Rain = 0
KONS 130040Z 16005KT 11/M09 A302 RMK A01 T01111090  RH  024%=      5-min Rain = 0
KONS 130045Z 17005KT 11/M09 A302 RMK A01 T01071086  RH  025%=      5-min Rain = 0
KONS 130050Z 17006KT 10/M08 A302 RMK A01 T01021083  RH  027%=      5-min Rain = 0
KONS 130055Z 16007KT 10/M08 A302 RMK A01 T00951081  RH  028%=      5-min Rain = 0
KONS 130100Z 16007KT 09/M08 A302 RMK A01 T00911083  RH  029%=      5-min Rain = 0
KONS 130105Z 16008KT 09/M09 A302 RMK A01 T00871085  RH  029%=      5-min Rain = 0
KONS 130110Z 16008KT 08/M09 A302 RMK A01 T00841086  RH  029%=      5-min Rain = 0
KONS 130115Z 15007KT 08/M09 A3021 RMK A01 T00821087  RH  029%=      5-min Rain = 0
KONS 130120Z 16007KT 08/M09 A3021 RMK A01 T00791088  RH  030%=      5-min Rain = 0
KONS 130125Z 15008KT 08/M09 A3021 RMK A01 T00791088  RH  030%=      5-min Rain = 0
KONS 130130Z 15008KT 08/M09 A3021 RMK A01 T00811089  RH  029%=      5-min Rain = 0
KONS 130135Z 15008KT 08/M09 A3021 RMK A01 T00841091  RH  028%=      5-min Rain = 0
KONS 130140Z 15008KT 08/M09 A3021 RMK A01 T00831092  RH  028%=      5-min Rain = 0
KONS 130145Z 14008KT 08/M09 A3021 RMK A01 T00801092  RH  029%=      5-min Rain = 0
KONS 130150Z 14008KT 08/M09 A3021 RMK A01 T00761092  RH  030%=      5-min Rain = 0
KONS 130155Z 14008KT 07/M09 A3021 RMK A01 T00731089  RH  031%=      5-min Rain = 0
KONS 130200Z 14007KT 07/M09 A3021 RMK A01 T00701087  RH  032%=      5-min Rain = 0
KONS 130205Z 14007KT 07/M09 A3021 RMK A01 T00661086  RH  033%=      5-min Rain = 0
KONS 130210Z 15008KT 06/M09 A3021 RMK A01 T00631087  RH  034%=      5-min Rain = 0
KONS 130215Z 15009KT 06/M09 A3021 RMK A01 T00611085  RH  035%=      5-min Rain = 0
KONS 130220Z 15009KT 06/M09 A3021 RMK A01 T00611087  RH  034%=      5-min Rain = 0
KONS 130225Z 15009KT 06/M09 A3021 RMK A01 T00611088  RH  034%=      5-min Rain = 0
KONS 130230Z 14009KT 06/M09 A3021 RMK A01 T00611087  RH  034%=      5-min Rain = 0
KONS 130235Z 14009KT 06/M09 A3021 RMK A01 T00611086  RH  034%=      5-min Rain = 0
KONS 130240Z 14009KT 06/M09 A3021 RMK A01 T00621086  RH  034%=      5-min Rain = 0
KONS 130245Z 15009KT 06/M09 A3021 RMK A01 T00631086  RH  034%=      5-min Rain = 0
KONS 130250Z 15009KT 06/M09 A3022 RMK A01 T00631087  RH  034%=      5-min Rain = 0
KONS 130255Z 15008KT 06/M09 A3022 RMK A01 T00641088  RH  033%=      5-min Rain = 0
KONS 130300Z 15008KT 07/M09 A3022 RMK A01 T00651087  RH  033%=      5-min Rain = 0
KONS 130305Z 15009KT 07/M09 A3022 RMK A01 T00651087  RH  033%=      5-min Rain = 0
KONS 130310Z 15009KT 07/M09 A3022 RMK A01 T00671088  RH  033%=      5-min Rain = 0
KONS 130315Z 15010KT 07/M09 A3022 RMK A01 T00671089  RH  032%=      5-min Rain = 0
KONS 130320Z 15009KT 07/M09 A3022 RMK A01 T00691089  RH  032%=      5-min Rain = 0
KONS 130325Z 15009KT 07/M09 A3022 RMK A01 T00671090  RH  032%=      5-min Rain = 0
KONS 130330Z 15008KT 06/M09 A3022 RMK A01 T00621092  RH  033%=      5-min Rain = 0
KONS 130335Z 15008KT 06/M09 A3022 RMK A01 T00581092  RH  034%=      5-min Rain = 0
KONS 130340Z 15008KT 06/M09 A3022 RMK A01 T00561092  RH  034%=      5-min Rain = 0
KONS 130345Z 15009KT 05/M09 A3022 RMK A01 T00541091  RH  035%=      5-min Rain = 0
KONS 130350Z 15009KT 05/M09 A3022 RMK A01 T00531091  RH  035%=      5-min Rain = 0
KONS 130355Z 15008KT 05/M09 A3022 RMK A01 T00511091  RH  035%=      5-min Rain = 0
KONS 130400Z 15009KT 05/M09 A3022 RMK A01 T00511090  RH  036%=      5-min Rain = 0
KONS 130405Z 15009KT 05/M09 A3022 RMK A01 T00521090  RH  035%=      5-min Rain = 0
KONS 130410Z 15010KT 05/M09 A3022 RMK A01 T00531090  RH  035%=      5-min Rain = 0
KONS 130415Z 15010KT 05/M09 A3022 RMK A01 T00531090  RH  035%=      5-min Rain = 0
KONS 130420Z 15010KT 05/M09 A3022 RMK A01 T00531090  RH  035%=      5-min Rain = 0
KONS 130425Z 15009KT 05/M09 A3022 RMK A01 T00521090  RH  035%=      5-min Rain = 0
KONS 130430Z 15009KT 05/M09 A3021 RMK A01 T00501090  RH  036%=      5-min Rain = 0
KONS 130435Z 15009KT 05/M09 A3021 RMK A01 T00491089  RH  037%=      5-min Rain = 0
KONS 130440Z 15009KT 05/M09 A3021 RMK A01 T00491089  RH  037%=      5-min Rain = 0
KONS 130445Z 15009KT 05/M09 A3022 RMK A01 T00501089  RH  037%=      5-min Rain = 0
KONS 130450Z 15009KT 05/M09 A3022 RMK A01 T00491089  RH  037%=      5-min Rain = 0
KONS 130455Z 15008KT 05/M09 A3022 RMK A01 T00471088  RH  037%=      5-min Rain = 0

Page generated in 0.0398 seconds.